sensor_id;sensor_type;location;lat;lon;timestamp;P1;durP1;ratioP1;P2;durP2;ratioP2
50585;SDS011;36542;51.700;8.846;2023-03-01T00:00:10;12.83;;;9.17;;
50585;SDS011;36542;51.700;8.846;2023-03-01T00:02:36;13.87;;;9.17;;
50585;SDS011;36542;51.700;8.846;2023-03-01T00:05:02;13.27;;;9.10;;
50585;SDS011;36542;51.700;8.846;2023-03-01T00:07:28;15.23;;;9.00;;
50585;SDS011;36542;51.700;8.846;2023-03-01T00:09:53;17.03;;;9.80;;
50585;SDS011;36542;51.700;8.846;2023-03-01T00:12:19;16.43;;;10.17;;
50585;SDS011;36542;51.700;8.846;2023-03-01T00:14:45;14.53;;;8.53;;
50585;SDS011;36542;51.700;8.846;2023-03-01T00:17:10;14.63;;;10.47;;
50585;SDS011;36542;51.700;8.846;2023-03-01T00:19:36;17.00;;;9.77;;
50585;SDS011;36542;51.700;8.846;2023-03-01T00:22:02;15.47;;;9.77;;
50585;SDS011;36542;51.700;8.846;2023-03-01T00:24:27;14.57;;;9.70;;
50585;SDS011;36542;51.700;8.846;2023-03-01T00:26:54;16.03;;;8.87;;
50585;SDS011;36542;51.700;8.846;2023-03-01T00:29:23;18.03;;;8.70;;
50585;SDS011;36542;51.700;8.846;2023-03-01T00:31:49;16.50;;;9.03;;
50585;SDS011;36542;51.700;8.846;2023-03-01T00:34:15;15.70;;;9.37;;
50585;SDS011;36542;51.700;8.846;2023-03-01T00:36:40;11.60;;;7.60;;
50585;SDS011;36542;51.700;8.846;2023-03-01T00:39:09;12.93;;;8.20;;
50585;SDS011;36542;51.700;8.846;2023-03-01T00:41:36;14.00;;;9.23;;
50585;SDS011;36542;51.700;8.846;2023-03-01T00:44:02;15.10;;;8.63;;
50585;SDS011;36542;51.700;8.846;2023-03-01T00:46:27;13.37;;;9.20;;
50585;SDS011;36542;51.700;8.846;2023-03-01T00:48:55;16.73;;;8.43;;
50585;SDS011;36542;51.700;8.846;2023-03-01T00:51:22;15.03;;;9.07;;
50585;SDS011;36542;51.700;8.846;2023-03-01T00:53:50;13.63;;;9.43;;
50585;SDS011;36542;51.700;8.846;2023-03-01T00:56:20;17.67;;;10.17;;
50585;SDS011;36542;51.700;8.846;2023-03-01T00:58:46;13.43;;;9.30;;
50585;SDS011;36542;51.700;8.846;2023-03-01T01:01:13;16.50;;;10.33;;
50585;SDS011;36542;51.700;8.846;2023-03-01T01:03:47;13.23;;;9.17;;
50585;SDS011;36542;51.700;8.846;2023-03-01T01:06:17;14.70;;;9.80;;
50585;SDS011;36542;51.700;8.846;2023-03-01T01:08:45;14.53;;;8.90;;
50585;SDS011;36542;51.700;8.846;2023-03-01T01:11:11;16.20;;;9.77;;
50585;SDS011;36542;51.700;8.846;2023-03-01T01:13:37;14.03;;;9.20;;
50585;SDS011;36542;51.700;8.846;2023-03-01T01:16:03;17.17;;;9.30;;
50585;SDS011;36542;51.700;8.846;2023-03-01T01:18:29;13.63;;;8.57;;
50585;SDS011;36542;51.700;8.846;2023-03-01T01:20:55;13.27;;;8.20;;
50585;SDS011;36542;51.700;8.846;2023-03-01T01:23:20;18.40;;;9.37;;
50585;SDS011;36542;51.700;8.846;2023-03-01T01:25:46;15.63;;;9.30;;
50585;SDS011;36542;51.700;8.846;2023-03-01T01:28:11;13.77;;;9.03;;
50585;SDS011;36542;51.700;8.846;2023-03-01T01:30:37;14.20;;;9.43;;
50585;SDS011;36542;51.700;8.846;2023-03-01T01:33:02;14.80;;;8.60;;
50585;SDS011;36542;51.700;8.846;2023-03-01T01:35:28;14.60;;;9.70;;
50585;SDS011;36542;51.700;8.846;2023-03-01T01:37:53;15.00;;;9.10;;
50585;SDS011;36542;51.700;8.846;2023-03-01T01:40:19;14.87;;;8.90;;
50585;SDS011;36542;51.700;8.846;2023-03-01T01:42:45;16.03;;;9.90;;
50585;SDS011;36542;51.700;8.846;2023-03-01T01:47:58;13.33;;;8.53;;
50585;SDS011;36542;51.700;8.846;2023-03-01T01:50:29;15.10;;;9.10;;
50585;SDS011;36542;51.700;8.846;2023-03-01T01:53:03;12.27;;;9.30;;
50585;SDS011;36542;51.700;8.846;2023-03-01T01:55:32;15.13;;;8.80;;
50585;SDS011;36542;51.700;8.846;2023-03-01T01:58:00;14.77;;;7.87;;
50585;SDS011;36542;51.700;8.846;2023-03-01T02:00:29;12.43;;;8.00;;
50585;SDS011;36542;51.700;8.846;2023-03-01T02:02:56;15.80;;;9.20;;
50585;SDS011;36542;51.700;8.846;2023-03-01T02:05:26;13.90;;;8.80;;
50585;SDS011;36542;51.700;8.846;2023-03-01T02:07:56;13.07;;;8.43;;
50585;SDS011;36542;51.700;8.846;2023-03-01T02:10:24;13.10;;;8.40;;
50585;SDS011;36542;51.700;8.846;2023-03-01T02:12:50;12.70;;;8.17;;
50585;SDS011;36542;51.700;8.846;2023-03-01T02:15:17;15.30;;;9.10;;
50585;SDS011;36542;51.700;8.846;2023-03-01T02:17:42;14.17;;;8.97;;
50585;SDS011;36542;51.700;8.846;2023-03-01T02:20:34;15.10;;;9.13;;
50585;SDS011;36542;51.700;8.846;2023-03-01T02:23:10;14.90;;;9.00;;
50585;SDS011;36542;51.700;8.846;2023-03-01T02:30:45;13.67;;;8.63;;
50585;SDS011;36542;51.700;8.846;2023-03-01T02:33:31;13.60;;;8.10;;
50585;SDS011;36542;51.700;8.846;2023-03-01T02:36:01;12.03;;;8.00;;
50585;SDS011;36542;51.700;8.846;2023-03-01T02:38:31;14.67;;;9.03;;
50585;SDS011;36542;51.700;8.846;2023-03-01T02:40:57;13.77;;;8.77;;
50585;SDS011;36542;51.700;8.846;2023-03-01T02:43:24;14.70;;;8.37;;
50585;SDS011;36542;51.700;8.846;2023-03-01T02:45:56;16.77;;;8.73;;
50585;SDS011;36542;51.700;8.846;2023-03-01T02:48:23;12.10;;;8.10;;
50585;SDS011;36542;51.700;8.846;2023-03-01T02:51:03;12.60;;;8.03;;
50585;SDS011;36542;51.700;8.846;2023-03-01T02:56:25;12.33;;;8.10;;
50585;SDS011;36542;51.700;8.846;2023-03-01T02:58:51;14.60;;;8.70;;
50585;SDS011;36542;51.700;8.846;2023-03-01T03:01:18;11.10;;;8.23;;
50585;SDS011;36542;51.700;8.846;2023-03-01T03:03:45;14.50;;;8.67;;
50585;SDS011;36542;51.700;8.846;2023-03-01T03:06:10;12.23;;;8.50;;
50585;SDS011;36542;51.700;8.846;2023-03-01T03:08:36;16.30;;;8.70;;
50585;SDS011;36542;51.700;8.846;2023-03-01T03:11:02;12.37;;;8.33;;
50585;SDS011;36542;51.700;8.846;2023-03-01T03:13:27;15.00;;;8.00;;
50585;SDS011;36542;51.700;8.846;2023-03-01T03:15:53;13.67;;;8.93;;
50585;SDS011;36542;51.700;8.846;2023-03-01T03:18:22;20.13;;;9.03;;
50585;SDS011;36542;51.700;8.846;2023-03-01T03:20:50;13.40;;;8.73;;
50585;SDS011;36542;51.700;8.846;2023-03-01T03:23:17;18.03;;;9.90;;
50585;SDS011;36542;51.700;8.846;2023-03-01T03:25:43;17.17;;;9.23;;
50585;SDS011;36542;51.700;8.846;2023-03-01T03:28:09;17.17;;;8.83;;
50585;SDS011;36542;51.700;8.846;2023-03-01T03:30:35;15.80;;;9.53;;
50585;SDS011;36542;51.700;8.846;2023-03-01T03:33:04;15.20;;;9.03;;
50585;SDS011;36542;51.700;8.846;2023-03-01T03:35:37;17.17;;;9.53;;
50585;SDS011;36542;51.700;8.846;2023-03-01T03:38:09;14.43;;;9.47;;
50585;SDS011;36542;51.700;8.846;2023-03-01T03:40:41;16.03;;;9.30;;
50585;SDS011;36542;51.700;8.846;2023-03-01T03:43:13;15.67;;;9.23;;
50585;SDS011;36542;51.700;8.846;2023-03-01T03:45:40;14.17;;;8.63;;
50585;SDS011;36542;51.700;8.846;2023-03-01T03:48:06;13.83;;;8.57;;
50585;SDS011;36542;51.700;8.846;2023-03-01T03:50:34;12.07;;;7.63;;
50585;SDS011;36542;51.700;8.846;2023-03-01T03:53:00;13.40;;;9.37;;
50585;SDS011;36542;51.700;8.846;2023-03-01T03:55:26;11.40;;;8.70;;
50585;SDS011;36542;51.700;8.846;2023-03-01T03:57:55;13.17;;;8.80;;
50585;SDS011;36542;51.700;8.846;2023-03-01T04:00:25;13.40;;;8.53;;
50585;SDS011;36542;51.700;8.846;2023-03-01T04:02:51;11.97;;;8.20;;
50585;SDS011;36542;51.700;8.846;2023-03-01T04:05:17;12.50;;;8.27;;
50585;SDS011;36542;51.700;8.846;2023-03-01T04:07:43;12.97;;;8.37;;
50585;SDS011;36542;51.700;8.846;2023-03-01T04:10:12;13.90;;;8.73;;
50585;SDS011;36542;51.700;8.846;2023-03-01T04:12:41;16.50;;;9.27;;
50585;SDS011;36542;51.700;8.846;2023-03-01T04:15:08;13.67;;;8.47;;
50585;SDS011;36542;51.700;8.846;2023-03-01T04:17:44;14.70;;;8.90;;
50585;SDS011;36542;51.700;8.846;2023-03-01T04:20:12;16.33;;;9.50;;
50585;SDS011;36542;51.700;8.846;2023-03-01T04:22:49;14.30;;;8.50;;
50585;SDS011;36542;51.700;8.846;2023-03-01T04:25:16;14.07;;;8.50;;
50585;SDS011;36542;51.700;8.846;2023-03-01T04:27:41;13.40;;;8.17;;
50585;SDS011;36542;51.700;8.846;2023-03-01T04:30:07;15.53;;;9.07;;
50585;SDS011;36542;51.700;8.846;2023-03-01T04:32:34;16.77;;;9.30;;
50585;SDS011;36542;51.700;8.846;2023-03-01T04:34:59;16.73;;;9.60;;
50585;SDS011;36542;51.700;8.846;2023-03-01T04:37:25;12.63;;;8.23;;
50585;SDS011;36542;51.700;8.846;2023-03-01T04:39:51;15.67;;;8.80;;
50585;SDS011;36542;51.700;8.846;2023-03-01T04:42:17;14.77;;;8.00;;
50585;SDS011;36542;51.700;8.846;2023-03-01T04:44:43;16.40;;;9.13;;
50585;SDS011;36542;51.700;8.846;2023-03-01T04:47:09;15.37;;;8.73;;
50585;SDS011;36542;51.700;8.846;2023-03-01T04:49:35;15.57;;;9.17;;
50585;SDS011;36542;51.700;8.846;2023-03-01T04:52:00;14.80;;;8.43;;
50585;SDS011;36542;51.700;8.846;2023-03-01T04:54:29;14.60;;;8.30;;
50585;SDS011;36542;51.700;8.846;2023-03-01T04:56:56;15.13;;;8.77;;
50585;SDS011;36542;51.700;8.846;2023-03-01T04:59:22;14.17;;;7.63;;
50585;SDS011;36542;51.700;8.846;2023-03-01T05:01:48;15.20;;;9.50;;
50585;SDS011;36542;51.700;8.846;2023-03-01T05:04:14;13.27;;;8.63;;
50585;SDS011;36542;51.700;8.846;2023-03-01T05:06:40;13.83;;;9.33;;
50585;SDS011;36542;51.700;8.846;2023-03-01T05:09:06;14.90;;;8.73;;
50585;SDS011;36542;51.700;8.846;2023-03-01T05:11:32;15.30;;;8.93;;
50585;SDS011;36542;51.700;8.846;2023-03-01T05:14:00;16.57;;;9.10;;
50585;SDS011;36542;51.700;8.846;2023-03-01T05:16:27;14.87;;;8.37;;
50585;SDS011;36542;51.700;8.846;2023-03-01T05:18:52;13.67;;;7.80;;
50585;SDS011;36542;51.700;8.846;2023-03-01T05:21:20;15.77;;;9.43;;
50585;SDS011;36542;51.700;8.846;2023-03-01T05:23:46;14.20;;;8.70;;
50585;SDS011;36542;51.700;8.846;2023-03-01T05:26:11;17.90;;;9.10;;
50585;SDS011;36542;51.700;8.846;2023-03-01T05:28:37;17.97;;;9.63;;
50585;SDS011;36542;51.700;8.846;2023-03-01T05:31:04;15.23;;;9.13;;
50585;SDS011;36542;51.700;8.846;2023-03-01T05:33:34;11.70;;;8.13;;
50585;SDS011;36542;51.700;8.846;2023-03-01T05:36:04;15.17;;;9.33;;
50585;SDS011;36542;51.700;8.846;2023-03-01T05:38:31;13.87;;;7.83;;
50585;SDS011;36542;51.700;8.846;2023-03-01T05:40:56;15.43;;;8.20;;
50585;SDS011;36542;51.700;8.846;2023-03-01T05:43:22;13.60;;;8.87;;
50585;SDS011;36542;51.700;8.846;2023-03-01T05:45:47;19.07;;;8.87;;
50585;SDS011;36542;51.700;8.846;2023-03-01T05:48:13;18.67;;;9.87;;
50585;SDS011;36542;51.700;8.846;2023-03-01T05:50:42;14.30;;;9.77;;
50585;SDS011;36542;51.700;8.846;2023-03-01T05:55:36;13.80;;;8.90;;
50585;SDS011;36542;51.700;8.846;2023-03-01T05:58:03;17.30;;;8.90;;
50585;SDS011;36542;51.700;8.846;2023-03-01T06:00:30;16.90;;;9.33;;
50585;SDS011;36542;51.700;8.846;2023-03-01T06:02:57;17.90;;;9.73;;
50585;SDS011;36542;51.700;8.846;2023-03-01T06:05:23;17.47;;;9.10;;
50585;SDS011;36542;51.700;8.846;2023-03-01T06:07:49;15.17;;;8.87;;
50585;SDS011;36542;51.700;8.846;2023-03-01T06:10:16;16.10;;;8.27;;
50585;SDS011;36542;51.700;8.846;2023-03-01T06:12:42;16.40;;;8.17;;
50585;SDS011;36542;51.700;8.846;2023-03-01T06:15:08;14.03;;;8.10;;
50585;SDS011;36542;51.700;8.846;2023-03-01T06:17:35;17.17;;;10.17;;
50585;SDS011;36542;51.700;8.846;2023-03-01T06:20:13;17.00;;;9.47;;
50585;SDS011;36542;51.700;8.846;2023-03-01T06:22:41;14.00;;;9.40;;
50585;SDS011;36542;51.700;8.846;2023-03-01T06:25:07;15.53;;;8.83;;
50585;SDS011;36542;51.700;8.846;2023-03-01T06:27:34;14.03;;;8.37;;
50585;SDS011;36542;51.700;8.846;2023-03-01T06:29:59;16.80;;;8.77;;
50585;SDS011;36542;51.700;8.846;2023-03-01T06:32:25;16.40;;;9.50;;
50585;SDS011;36542;51.700;8.846;2023-03-01T06:34:51;14.53;;;9.07;;
50585;SDS011;36542;51.700;8.846;2023-03-01T06:37:16;12.60;;;8.40;;
50585;SDS011;36542;51.700;8.846;2023-03-01T06:39:42;14.00;;;7.83;;
50585;SDS011;36542;51.700;8.846;2023-03-01T06:42:08;15.47;;;8.47;;
50585;SDS011;36542;51.700;8.846;2023-03-01T06:44:35;16.50;;;8.97;;
50585;SDS011;36542;51.700;8.846;2023-03-01T06:47:00;14.73;;;8.93;;
50585;SDS011;36542;51.700;8.846;2023-03-01T06:49:26;18.23;;;9.87;;
50585;SDS011;36542;51.700;8.846;2023-03-01T06:51:52;16.53;;;9.73;;
50585;SDS011;36542;51.700;8.846;2023-03-01T06:54:17;14.33;;;8.50;;
50585;SDS011;36542;51.700;8.846;2023-03-01T06:56:46;15.10;;;8.70;;
50585;SDS011;36542;51.700;8.846;2023-03-01T06:59:12;14.87;;;9.47;;
50585;SDS011;36542;51.700;8.846;2023-03-01T07:01:38;12.57;;;9.20;;
50585;SDS011;36542;51.700;8.846;2023-03-01T07:04:03;14.47;;;9.27;;
50585;SDS011;36542;51.700;8.846;2023-03-01T07:06:29;12.87;;;8.70;;
50585;SDS011;36542;51.700;8.846;2023-03-01T07:08:55;9.93;;;8.23;;
50585;SDS011;36542;51.700;8.846;2023-03-01T07:11:20;12.60;;;7.97;;
50585;SDS011;36542;51.700;8.846;2023-03-01T07:13:46;10.03;;;7.20;;
50585;SDS011;36542;51.700;8.846;2023-03-01T07:16:11;11.47;;;7.30;;
50585;SDS011;36542;51.700;8.846;2023-03-01T07:18:37;10.43;;;6.23;;
50585;SDS011;36542;51.700;8.846;2023-03-01T07:21:06;10.57;;;6.00;;
50585;SDS011;36542;51.700;8.846;2023-03-01T07:23:32;10.77;;;6.57;;
50585;SDS011;36542;51.700;8.846;2023-03-01T07:25:57;8.50;;;6.83;;
50585;SDS011;36542;51.700;8.846;2023-03-01T07:28:23;11.03;;;7.57;;
50585;SDS011;36542;51.700;8.846;2023-03-01T07:30:49;8.43;;;7.37;;
50585;SDS011;36542;51.700;8.846;2023-03-01T07:33:15;10.23;;;7.37;;
50585;SDS011;36542;51.700;8.846;2023-03-01T07:35:41;10.03;;;7.57;;
50585;SDS011;36542;51.700;8.846;2023-03-01T07:38:06;11.23;;;9.43;;
50585;SDS011;36542;51.700;8.846;2023-03-01T07:40:32;10.00;;;7.40;;
50585;SDS011;36542;51.700;8.846;2023-03-01T07:42:57;10.60;;;6.53;;
50585;SDS011;36542;51.700;8.846;2023-03-01T07:45:29;9.90;;;7.03;;
50585;SDS011;36542;51.700;8.846;2023-03-01T07:47:55;7.80;;;5.90;;
50585;SDS011;36542;51.700;8.846;2023-03-01T07:50:21;9.47;;;6.27;;
50585;SDS011;36542;51.700;8.846;2023-03-01T07:52:48;9.37;;;6.73;;
50585;SDS011;36542;51.700;8.846;2023-03-01T07:55:14;10.23;;;6.73;;
50585;SDS011;36542;51.700;8.846;2023-03-01T07:57:40;7.73;;;5.80;;
50585;SDS011;36542;51.700;8.846;2023-03-01T08:00:07;8.50;;;5.50;;
50585;SDS011;36542;51.700;8.846;2023-03-01T08:02:37;8.27;;;6.37;;
50585;SDS011;36542;51.700;8.846;2023-03-01T08:05:03;8.83;;;6.03;;
50585;SDS011;36542;51.700;8.846;2023-03-01T08:07:29;8.37;;;6.20;;
50585;SDS011;36542;51.700;8.846;2023-03-01T08:09:54;8.83;;;6.13;;
50585;SDS011;36542;51.700;8.846;2023-03-01T08:12:20;8.47;;;5.80;;
50585;SDS011;36542;51.700;8.846;2023-03-01T08:14:45;7.30;;;5.60;;
50585;SDS011;36542;51.700;8.846;2023-03-01T08:17:13;11.53;;;5.80;;
50585;SDS011;36542;51.700;8.846;2023-03-01T08:19:39;7.97;;;5.10;;
50585;SDS011;36542;51.700;8.846;2023-03-01T08:22:04;7.40;;;5.77;;
50585;SDS011;36542;51.700;8.846;2023-03-01T08:24:30;7.47;;;5.60;;
50585;SDS011;36542;51.700;8.846;2023-03-01T08:26:56;7.70;;;5.47;;
50585;SDS011;36542;51.700;8.846;2023-03-01T08:29:21;8.67;;;6.17;;
50585;SDS011;36542;51.700;8.846;2023-03-01T08:31:49;9.07;;;6.03;;
50585;SDS011;36542;51.700;8.846;2023-03-01T08:34:15;7.93;;;5.87;;
50585;SDS011;36542;51.700;8.846;2023-03-01T08:36:43;9.07;;;6.13;;
50585;SDS011;36542;51.700;8.846;2023-03-01T08:39:11;8.67;;;6.77;;
50585;SDS011;36542;51.700;8.846;2023-03-01T08:41:38;9.23;;;6.37;;
50585;SDS011;36542;51.700;8.846;2023-03-01T08:44:05;8.80;;;6.00;;
50585;SDS011;36542;51.700;8.846;2023-03-01T08:46:32;8.23;;;6.23;;
50585;SDS011;36542;51.700;8.846;2023-03-01T08:49:03;7.93;;;6.07;;
50585;SDS011;36542;51.700;8.846;2023-03-01T08:51:29;8.90;;;6.37;;
50585;SDS011;36542;51.700;8.846;2023-03-01T08:53:56;6.93;;;5.70;;
50585;SDS011;36542;51.700;8.846;2023-03-01T08:56:22;8.40;;;6.07;;
50585;SDS011;36542;51.700;8.846;2023-03-01T08:58:48;9.00;;;6.27;;
50585;SDS011;36542;51.700;8.846;2023-03-01T09:01:18;9.37;;;6.37;;
50585;SDS011;36542;51.700;8.846;2023-03-01T09:03:44;7.30;;;5.93;;
50585;SDS011;36542;51.700;8.846;2023-03-01T09:06:10;8.13;;;5.50;;
50585;SDS011;36542;51.700;8.846;2023-03-01T09:08:37;9.33;;;5.47;;
50585;SDS011;36542;51.700;8.846;2023-03-01T09:11:04;9.93;;;6.30;;
50585;SDS011;36542;51.700;8.846;2023-03-01T09:13:31;12.20;;;6.27;;
50585;SDS011;36542;51.700;8.846;2023-03-01T09:15:58;10.30;;;6.20;;
50585;SDS011;36542;51.700;8.846;2023-03-01T09:18:25;9.03;;;5.63;;
50585;SDS011;36542;51.700;8.846;2023-03-01T09:20:50;7.50;;;5.80;;
50585;SDS011;36542;51.700;8.846;2023-03-01T09:23:16;10.53;;;5.83;;
50585;SDS011;36542;51.700;8.846;2023-03-01T09:25:41;8.70;;;5.97;;
50585;SDS011;36542;51.700;8.846;2023-03-01T09:28:07;9.13;;;5.50;;
50585;SDS011;36542;51.700;8.846;2023-03-01T09:30:32;6.73;;;5.13;;
50585;SDS011;36542;51.700;8.846;2023-03-01T09:32:58;7.70;;;6.10;;
50585;SDS011;36542;51.700;8.846;2023-03-01T09:35:23;10.53;;;5.60;;
50585;SDS011;36542;51.700;8.846;2023-03-01T09:37:49;8.23;;;5.67;;
50585;SDS011;36542;51.700;8.846;2023-03-01T09:40:17;6.70;;;5.23;;
50585;SDS011;36542;51.700;8.846;2023-03-01T09:42:47;7.93;;;5.90;;
50585;SDS011;36542;51.700;8.846;2023-03-01T09:45:24;7.53;;;5.10;;
50585;SDS011;36542;51.700;8.846;2023-03-01T09:48:02;8.27;;;5.57;;
50585;SDS011;36542;51.700;8.846;2023-03-01T09:50:38;9.23;;;6.27;;
50585;SDS011;36542;51.700;8.846;2023-03-01T09:53:09;9.57;;;5.60;;
50585;SDS011;36542;51.700;8.846;2023-03-01T09:55:43;7.90;;;5.33;;
50585;SDS011;36542;51.700;8.846;2023-03-01T09:58:22;7.47;;;5.83;;
50585;SDS011;36542;51.700;8.846;2023-03-01T10:00:57;9.13;;;6.10;;
50585;SDS011;36542;51.700;8.846;2023-03-01T10:03:33;8.00;;;5.70;;
50585;SDS011;36542;51.700;8.846;2023-03-01T10:06:11;7.30;;;5.53;;
50585;SDS011;36542;51.700;8.846;2023-03-01T10:09:02;8.10;;;5.77;;
50585;SDS011;36542;51.700;8.846;2023-03-01T10:11:37;8.20;;;5.63;;
50585;SDS011;36542;51.700;8.846;2023-03-01T10:19:44;7.03;;;5.47;;
50585;SDS011;36542;51.700;8.846;2023-03-01T10:22:21;9.90;;;5.73;;
50585;SDS011;36542;51.700;8.846;2023-03-01T10:24:52;7.87;;;5.20;;
50585;SDS011;36542;51.700;8.846;2023-03-01T10:27:24;8.20;;;6.40;;
50585;SDS011;36542;51.700;8.846;2023-03-01T10:32:38;6.80;;;5.30;;
50585;SDS011;36542;51.700;8.846;2023-03-01T10:35:17;6.87;;;6.10;;
50585;SDS011;36542;51.700;8.846;2023-03-01T10:37:57;8.97;;;6.00;;
50585;SDS011;36542;51.700;8.846;2023-03-01T10:40:22;7.17;;;5.40;;
50585;SDS011;36542;51.700;8.846;2023-03-01T10:42:48;6.97;;;5.57;;
50585;SDS011;36542;51.700;8.846;2023-03-01T10:45:32;7.80;;;6.00;;
50585;SDS011;36542;51.700;8.846;2023-03-01T10:48:04;6.97;;;5.60;;
50585;SDS011;36542;51.700;8.846;2023-03-01T10:50:30;8.40;;;6.10;;
50585;SDS011;36542;51.700;8.846;2023-03-01T10:53:00;10.27;;;5.83;;
50585;SDS011;36542;51.700;8.846;2023-03-01T10:55:35;7.57;;;5.80;;
50585;SDS011;36542;51.700;8.846;2023-03-01T10:58:07;10.67;;;6.33;;
50585;SDS011;36542;51.700;8.846;2023-03-01T11:00:58;8.30;;;5.57;;
50585;SDS011;36542;51.700;8.846;2023-03-01T11:03:32;7.43;;;5.50;;
50585;SDS011;36542;51.700;8.846;2023-03-01T11:08:38;8.77;;;6.00;;
50585;SDS011;36542;51.700;8.846;2023-03-01T11:13:37;8.77;;;6.13;;
50585;SDS011;36542;51.700;8.846;2023-03-01T11:16:14;7.73;;;5.80;;
50585;SDS011;36542;51.700;8.846;2023-03-01T11:18:39;8.47;;;5.97;;
50585;SDS011;36542;51.700;8.846;2023-03-01T11:21:05;7.50;;;5.03;;
50585;SDS011;36542;51.700;8.846;2023-03-01T11:23:33;9.20;;;5.83;;
50585;SDS011;36542;51.700;8.846;2023-03-01T11:26:04;7.53;;;5.70;;
50585;SDS011;36542;51.700;8.846;2023-03-01T11:28:33;7.60;;;5.60;;
50585;SDS011;36542;51.700;8.846;2023-03-01T11:31:06;7.23;;;5.43;;
50585;SDS011;36542;51.700;8.846;2023-03-01T11:33:47;9.50;;;6.27;;
50585;SDS011;36542;51.700;8.846;2023-03-01T11:36:35;7.80;;;5.77;;
50585;SDS011;36542;51.700;8.846;2023-03-01T11:39:27;8.53;;;5.93;;
50585;SDS011;36542;51.700;8.846;2023-03-01T11:42:13;9.37;;;6.10;;
50585;SDS011;36542;51.700;8.846;2023-03-01T11:44:43;10.13;;;6.47;;
50585;SDS011;36542;51.700;8.846;2023-03-01T11:49:50;8.97;;;5.60;;
50585;SDS011;36542;51.700;8.846;2023-03-01T11:52:30;8.93;;;6.10;;
50585;SDS011;36542;51.700;8.846;2023-03-01T11:55:25;9.40;;;6.37;;
50585;SDS011;36542;51.700;8.846;2023-03-01T11:58:20;10.50;;;6.43;;
50585;SDS011;36542;51.700;8.846;2023-03-01T12:06:57;9.80;;;6.23;;
50585;SDS011;36542;51.700;8.846;2023-03-01T12:20:38;9.90;;;5.93;;
50585;SDS011;36542;51.700;8.846;2023-03-01T12:25:55;7.67;;;5.70;;
50585;SDS011;36542;51.700;8.846;2023-03-01T12:28:33;8.73;;;5.53;;
50585;SDS011;36542;51.700;8.846;2023-03-01T12:31:16;9.50;;;5.70;;
50585;SDS011;36542;51.700;8.846;2023-03-01T12:34:08;7.83;;;5.80;;
50585;SDS011;36542;51.700;8.846;2023-03-01T12:50:37;9.67;;;6.67;;
50585;SDS011;36542;51.700;8.846;2023-03-01T12:53:04;10.83;;;6.23;;
50585;SDS011;36542;51.700;8.846;2023-03-01T12:55:37;9.97;;;5.93;;
50585;SDS011;36542;51.700;8.846;2023-03-01T12:58:15;9.37;;;6.10;;
50585;SDS011;36542;51.700;8.846;2023-03-01T13:01:04;10.83;;;5.93;;
50585;SDS011;36542;51.700;8.846;2023-03-01T13:03:48;7.27;;;5.30;;
50585;SDS011;36542;51.700;8.846;2023-03-01T13:09:40;6.87;;;5.37;;
50585;SDS011;36542;51.700;8.846;2023-03-01T13:12:45;9.57;;;6.00;;
50585;SDS011;36542;51.700;8.846;2023-03-01T13:31:06;9.07;;;5.60;;
50585;SDS011;36542;51.700;8.846;2023-03-01T13:33:51;8.37;;;4.93;;
50585;SDS011;36542;51.700;8.846;2023-03-01T13:38:57;7.77;;;5.07;;
50585;SDS011;36542;51.700;8.846;2023-03-01T13:44:12;9.27;;;5.20;;
50585;SDS011;36542;51.700;8.846;2023-03-01T13:46:51;9.00;;;5.47;;
50585;SDS011;36542;51.700;8.846;2023-03-01T13:49:19;6.03;;;4.93;;
50585;SDS011;36542;51.700;8.846;2023-03-01T13:52:00;8.03;;;5.07;;
50585;SDS011;36542;51.700;8.846;2023-03-01T13:54:29;9.30;;;5.10;;
50585;SDS011;36542;51.700;8.846;2023-03-01T13:56:58;7.23;;;4.50;;
50585;SDS011;36542;51.700;8.846;2023-03-01T13:59:25;7.37;;;5.00;;
50585;SDS011;36542;51.700;8.846;2023-03-01T14:01:55;7.57;;;5.77;;
50585;SDS011;36542;51.700;8.846;2023-03-01T14:04:23;9.87;;;5.57;;
50585;SDS011;36542;51.700;8.846;2023-03-01T14:06:52;7.13;;;5.63;;
50585;SDS011;36542;51.700;8.846;2023-03-01T14:09:33;8.20;;;6.17;;
50585;SDS011;36542;51.700;8.846;2023-03-01T14:14:42;9.60;;;6.37;;
50585;SDS011;36542;51.700;8.846;2023-03-01T14:17:27;9.33;;;6.50;;
50585;SDS011;36542;51.700;8.846;2023-03-01T14:20:32;8.33;;;5.90;;
50585;SDS011;36542;51.700;8.846;2023-03-01T14:23:01;7.43;;;6.10;;
50585;SDS011;36542;51.700;8.846;2023-03-01T14:25:34;8.07;;;5.90;;
50585;SDS011;36542;51.700;8.846;2023-03-01T14:30:43;8.93;;;6.30;;
50585;SDS011;36542;51.700;8.846;2023-03-01T14:33:26;9.13;;;6.43;;
50585;SDS011;36542;51.700;8.846;2023-03-01T14:36:05;11.30;;;6.37;;
50585;SDS011;36542;51.700;8.846;2023-03-01T14:38:33;8.97;;;6.47;;
50585;SDS011;36542;51.700;8.846;2023-03-01T14:41:00;9.00;;;6.23;;
50585;SDS011;36542;51.700;8.846;2023-03-01T14:43:29;8.73;;;6.40;;
50585;SDS011;36542;51.700;8.846;2023-03-01T14:45:55;11.87;;;6.47;;
50585;SDS011;36542;51.700;8.846;2023-03-01T14:48:21;9.80;;;6.87;;
50585;SDS011;36542;51.700;8.846;2023-03-01T14:50:46;12.53;;;6.10;;
50585;SDS011;36542;51.700;8.846;2023-03-01T14:53:17;11.23;;;6.80;;
50585;SDS011;36542;51.700;8.846;2023-03-01T14:55:47;14.93;;;7.03;;
50585;SDS011;36542;51.700;8.846;2023-03-01T14:58:18;9.03;;;6.27;;
50585;SDS011;36542;51.700;8.846;2023-03-01T15:00:53;11.77;;;6.67;;
50585;SDS011;36542;51.700;8.846;2023-03-01T15:03:26;10.03;;;6.97;;
50585;SDS011;36542;51.700;8.846;2023-03-01T15:05:56;13.43;;;6.77;;
50585;SDS011;36542;51.700;8.846;2023-03-01T15:08:24;10.73;;;6.77;;
50585;SDS011;36542;51.700;8.846;2023-03-01T15:11:04;8.13;;;6.27;;
50585;SDS011;36542;51.700;8.846;2023-03-01T15:13:41;9.30;;;6.60;;
50585;SDS011;36542;51.700;8.846;2023-03-01T15:18:35;9.93;;;6.83;;
50585;SDS011;36542;51.700;8.846;2023-03-01T15:21:21;10.30;;;6.47;;
50585;SDS011;36542;51.700;8.846;2023-03-01T15:23:53;9.37;;;5.93;;
50585;SDS011;36542;51.700;8.846;2023-03-01T15:26:28;12.47;;;6.63;;
50585;SDS011;36542;51.700;8.846;2023-03-01T15:28:56;11.70;;;6.67;;
50585;SDS011;36542;51.700;8.846;2023-03-01T15:31:25;9.27;;;6.47;;
50585;SDS011;36542;51.700;8.846;2023-03-01T15:33:52;8.33;;;6.67;;
50585;SDS011;36542;51.700;8.846;2023-03-01T15:39:05;11.57;;;6.43;;
50585;SDS011;36542;51.700;8.846;2023-03-01T15:41:48;13.17;;;7.37;;
50585;SDS011;36542;51.700;8.846;2023-03-01T15:44:15;10.13;;;6.90;;
50585;SDS011;36542;51.700;8.846;2023-03-01T15:46:44;10.97;;;6.60;;
50585;SDS011;36542;51.700;8.846;2023-03-01T15:52:13;10.03;;;6.60;;
50585;SDS011;36542;51.700;8.846;2023-03-01T15:54:53;11.37;;;6.37;;
50585;SDS011;36542;51.700;8.846;2023-03-01T15:57:20;10.03;;;6.67;;
50585;SDS011;36542;51.700;8.846;2023-03-01T15:59:46;11.00;;;6.80;;
50585;SDS011;36542;51.700;8.846;2023-03-01T16:02:11;7.80;;;6.20;;
50585;SDS011;36542;51.700;8.846;2023-03-01T16:04:40;11.37;;;7.10;;
50585;SDS011;36542;51.700;8.846;2023-03-01T16:07:05;8.63;;;5.97;;
50585;SDS011;36542;51.700;8.846;2023-03-01T16:09:31;8.93;;;6.27;;
50585;SDS011;36542;51.700;8.846;2023-03-01T16:11:57;8.90;;;5.93;;
50585;SDS011;36542;51.700;8.846;2023-03-01T16:14:22;8.27;;;5.80;;
50585;SDS011;36542;51.700;8.846;2023-03-01T16:16:48;9.23;;;5.70;;
50585;SDS011;36542;51.700;8.846;2023-03-01T16:19:14;9.27;;;5.43;;
50585;SDS011;36542;51.700;8.846;2023-03-01T16:21:40;8.90;;;5.37;;
50585;SDS011;36542;51.700;8.846;2023-03-01T16:24:07;7.10;;;4.83;;
50585;SDS011;36542;51.700;8.846;2023-03-01T16:26:33;6.93;;;5.13;;
50585;SDS011;36542;51.700;8.846;2023-03-01T16:28:58;9.57;;;4.90;;
50585;SDS011;36542;51.700;8.846;2023-03-01T16:31:24;8.90;;;5.43;;
50585;SDS011;36542;51.700;8.846;2023-03-01T16:33:53;7.80;;;5.17;;